sensor_id;sensor_type;location;lat;lon;timestamp;P1;durP1;ratioP1;P2;durP2;ratioP2
21394;SDS011;10858;42.714;23.180;2023-05-07T00:00:47;1.45;;;1.42;;
21394;SDS011;10858;42.714;23.180;2023-05-07T00:03:14;1.70;;;1.52;;
21394;SDS011;10858;42.714;23.180;2023-05-07T00:05:40;1.27;;;1.15;;
21394;SDS011;10858;42.714;23.180;2023-05-07T00:08:07;1.02;;;1.02;;
21394;SDS011;10858;42.714;23.180;2023-05-07T00:10:33;1.10;;;1.00;;
21394;SDS011;10858;42.714;23.180;2023-05-07T00:12:59;2.30;;;2.15;;
21394;SDS011;10858;42.714;23.180;2023-05-07T00:15:25;1.35;;;1.35;;
21394;SDS011;10858;42.714;23.180;2023-05-07T00:17:52;1.20;;;1.20;;
21394;SDS011;10858;42.714;23.180;2023-05-07T00:20:19;0.85;;;0.85;;
21394;SDS011;10858;42.714;23.180;2023-05-07T00:22:45;1.70;;;1.63;;
21394;SDS011;10858;42.714;23.180;2023-05-07T00:25:11;1.60;;;1.50;;
21394;SDS011;10858;42.714;23.180;2023-05-07T00:27:38;2.15;;;2.05;;
21394;SDS011;10858;42.714;23.180;2023-05-07T00:30:04;6.50;;;1.88;;
21394;SDS011;10858;42.714;23.180;2023-05-07T00:32:31;5.30;;;3.08;;
21394;SDS011;10858;42.714;23.180;2023-05-07T00:34:57;1.67;;;1.58;;
21394;SDS011;10858;42.714;23.180;2023-05-07T00:37:23;1.90;;;1.80;;
21394;SDS011;10858;42.714;23.180;2023-05-07T00:39:50;4.20;;;3.88;;
21394;SDS011;10858;42.714;23.180;2023-05-07T00:42:16;1.88;;;1.77;;
21394;SDS011;10858;42.714;23.180;2023-05-07T00:44:43;1.55;;;1.50;;
21394;SDS011;10858;42.714;23.180;2023-05-07T00:47:09;5.45;;;3.60;;
21394;SDS011;10858;42.714;23.180;2023-05-07T00:49:43;2.08;;;1.98;;
21394;SDS011;10858;42.714;23.180;2023-05-07T00:52:11;1.13;;;1.13;;
21394;SDS011;10858;42.714;23.180;2023-05-07T00:54:39;1.10;;;1.10;;
21394;SDS011;10858;42.714;23.180;2023-05-07T00:57:06;4.53;;;2.20;;
21394;SDS011;10858;42.714;23.180;2023-05-07T00:59:33;2.03;;;1.70;;
21394;SDS011;10858;42.714;23.180;2023-05-07T01:02:00;2.15;;;1.98;;
21394;SDS011;10858;42.714;23.180;2023-05-07T01:04:26;1.98;;;1.88;;
21394;SDS011;10858;42.714;23.180;2023-05-07T01:06:53;2.50;;;2.30;;
21394;SDS011;10858;42.714;23.180;2023-05-07T01:09:21;1.95;;;1.85;;
21394;SDS011;10858;42.714;23.180;2023-05-07T01:11:49;2.28;;;1.88;;
21394;SDS011;10858;42.714;23.180;2023-05-07T01:14:17;1.95;;;1.85;;
21394;SDS011;10858;42.714;23.180;2023-05-07T01:16:43;1.98;;;1.88;;
21394;SDS011;10858;42.714;23.180;2023-05-07T01:19:11;1.60;;;1.50;;
21394;SDS011;10858;42.714;23.180;2023-05-07T01:21:39;3.40;;;1.25;;
21394;SDS011;10858;42.714;23.180;2023-05-07T01:24:12;1.25;;;1.25;;
21394;SDS011;10858;42.714;23.180;2023-05-07T01:26:40;1.20;;;1.20;;
21394;SDS011;10858;42.714;23.180;2023-05-07T01:29:07;3.50;;;1.63;;
21394;SDS011;10858;42.714;23.180;2023-05-07T01:31:33;2.33;;;1.15;;
21394;SDS011;10858;42.714;23.180;2023-05-07T01:34:01;1.23;;;1.10;;
21394;SDS011;10858;42.714;23.180;2023-05-07T01:36:28;2.67;;;2.45;;
21394;SDS011;10858;42.714;23.180;2023-05-07T01:38:56;3.17;;;2.88;;
21394;SDS011;10858;42.714;23.180;2023-05-07T01:41:24;3.50;;;2.42;;
21394;SDS011;10858;42.714;23.180;2023-05-07T01:43:50;2.50;;;2.17;;
21394;SDS011;10858;42.714;23.180;2023-05-07T01:46:18;1.20;;;1.20;;
21394;SDS011;10858;42.714;23.180;2023-05-07T01:48:45;2.28;;;1.75;;
21394;SDS011;10858;42.714;23.180;2023-05-07T01:51:12;1.70;;;1.58;;
21394;SDS011;10858;42.714;23.180;2023-05-07T01:53:38;1.23;;;1.15;;
21394;SDS011;10858;42.714;23.180;2023-05-07T01:56:05;1.83;;;1.73;;
21394;SDS011;10858;42.714;23.180;2023-05-07T01:58:33;1.75;;;1.65;;
21394;SDS011;10858;42.714;23.180;2023-05-07T02:00:59;1.80;;;1.60;;
21394;SDS011;10858;42.714;23.180;2023-05-07T02:03:25;0.95;;;0.95;;
21394;SDS011;10858;42.714;23.180;2023-05-07T02:05:52;1.05;;;1.05;;
21394;SDS011;10858;42.714;23.180;2023-05-07T02:08:18;5.30;;;2.17;;
21394;SDS011;10858;42.714;23.180;2023-05-07T02:10:44;6.55;;;1.38;;
21394;SDS011;10858;42.714;23.180;2023-05-07T02:13:10;1.13;;;1.13;;
21394;SDS011;10858;42.714;23.180;2023-05-07T02:15:37;1.95;;;1.85;;
21394;SDS011;10858;42.714;23.180;2023-05-07T02:18:04;3.45;;;1.40;;
21394;SDS011;10858;42.714;23.180;2023-05-07T02:20:31;1.20;;;1.17;;
21394;SDS011;10858;42.714;23.180;2023-05-07T02:22:58;2.35;;;2.00;;
21394;SDS011;10858;42.714;23.180;2023-05-07T02:25:25;1.60;;;1.52;;
21394;SDS011;10858;42.714;23.180;2023-05-07T02:27:51;2.85;;;2.47;;
21394;SDS011;10858;42.714;23.180;2023-05-07T02:30:17;1.50;;;1.45;;
21394;SDS011;10858;42.714;23.180;2023-05-07T02:32:46;0.70;;;0.70;;
21394;SDS011;10858;42.714;23.180;2023-05-07T02:35:12;1.77;;;1.67;;
21394;SDS011;10858;42.714;23.180;2023-05-07T02:37:38;0.93;;;0.93;;
21394;SDS011;10858;42.714;23.180;2023-05-07T02:40:05;1.40;;;1.35;;
21394;SDS011;10858;42.714;23.180;2023-05-07T02:42:31;2.22;;;1.67;;
21394;SDS011;10858;42.714;23.180;2023-05-07T02:44:58;2.83;;;2.13;;
21394;SDS011;10858;42.714;23.180;2023-05-07T02:47:24;1.95;;;1.85;;
21394;SDS011;10858;42.714;23.180;2023-05-07T02:49:54;1.75;;;1.65;;
21394;SDS011;10858;42.714;23.180;2023-05-07T02:52:20;1.50;;;1.48;;
21394;SDS011;10858;42.714;23.180;2023-05-07T02:54:47;1.00;;;1.00;;
21394;SDS011;10858;42.714;23.180;2023-05-07T02:57:13;2.65;;;2.45;;
21394;SDS011;10858;42.714;23.180;2023-05-07T02:59:39;1.73;;;1.63;;
21394;SDS011;10858;42.714;23.180;2023-05-07T03:02:06;1.27;;;1.25;;
21394;SDS011;10858;42.714;23.180;2023-05-07T03:04:32;1.15;;;1.15;;
21394;SDS011;10858;42.714;23.180;2023-05-07T03:06:59;2.42;;;2.10;;
21394;SDS011;10858;42.714;23.180;2023-05-07T03:09:25;1.67;;;1.58;;
21394;SDS011;10858;42.714;23.180;2023-05-07T03:11:51;1.23;;;1.23;;
21394;SDS011;10858;42.714;23.180;2023-05-07T03:14:17;1.30;;;1.20;;
21394;SDS011;10858;42.714;23.180;2023-05-07T03:16:43;1.30;;;0.98;;
21394;SDS011;10858;42.714;23.180;2023-05-07T03:19:10;0.80;;;0.80;;
21394;SDS011;10858;42.714;23.180;2023-05-07T03:21:36;5.95;;;1.85;;
21394;SDS011;10858;42.714;23.180;2023-05-07T03:24:02;2.75;;;2.50;;
21394;SDS011;10858;42.714;23.180;2023-05-07T03:26:29;1.50;;;1.40;;
21394;SDS011;10858;42.714;23.180;2023-05-07T03:28:55;2.38;;;2.22;;
21394;SDS011;10858;42.714;23.180;2023-05-07T03:31:21;2.22;;;2.13;;
21394;SDS011;10858;42.714;23.180;2023-05-07T03:33:51;1.40;;;1.40;;
21394;SDS011;10858;42.714;23.180;2023-05-07T03:36:19;1.05;;;1.05;;
21394;SDS011;10858;42.714;23.180;2023-05-07T03:38:46;2.05;;;1.95;;
21394;SDS011;10858;42.714;23.180;2023-05-07T03:41:13;1.88;;;1.77;;
21394;SDS011;10858;42.714;23.180;2023-05-07T03:43:39;2.60;;;2.40;;
21394;SDS011;10858;42.714;23.180;2023-05-07T03:46:06;2.35;;;2.10;;
21394;SDS011;10858;42.714;23.180;2023-05-07T03:48:32;6.55;;;2.55;;
21394;SDS011;10858;42.714;23.180;2023-05-07T03:50:58;2.28;;;1.27;;
21394;SDS011;10858;42.714;23.180;2023-05-07T03:53:25;1.38;;;1.27;;
21394;SDS011;10858;42.714;23.180;2023-05-07T03:55:51;1.92;;;1.65;;
21394;SDS011;10858;42.714;23.180;2023-05-07T03:58:18;1.98;;;1.48;;
21394;SDS011;10858;42.714;23.180;2023-05-07T04:00:44;1.33;;;1.33;;
21394;SDS011;10858;42.714;23.180;2023-05-07T04:03:10;1.85;;;1.60;;
21394;SDS011;10858;42.714;23.180;2023-05-07T04:05:36;1.83;;;1.73;;
21394;SDS011;10858;42.714;23.180;2023-05-07T04:08:03;2.53;;;1.95;;
21394;SDS011;10858;42.714;23.180;2023-05-07T04:10:30;1.15;;;1.15;;
21394;SDS011;10858;42.714;23.180;2023-05-07T04:12:56;1.15;;;1.13;;
21394;SDS011;10858;42.714;23.180;2023-05-07T04:15:23;2.35;;;2.25;;
21394;SDS011;10858;42.714;23.180;2023-05-07T04:17:49;3.42;;;2.92;;
21394;SDS011;10858;42.714;23.180;2023-05-07T04:20:16;2.72;;;2.40;;
21394;SDS011;10858;42.714;23.180;2023-05-07T04:22:42;1.77;;;1.65;;
21394;SDS011;10858;42.714;23.180;2023-05-07T04:25:09;3.28;;;3.03;;
21394;SDS011;10858;42.714;23.180;2023-05-07T04:27:35;3.60;;;2.25;;
21394;SDS011;10858;42.714;23.180;2023-05-07T04:30:02;1.92;;;1.48;;
21394;SDS011;10858;42.714;23.180;2023-05-07T04:32:29;3.22;;;1.77;;
21394;SDS011;10858;42.714;23.180;2023-05-07T04:34:56;2.35;;;1.58;;
21394;SDS011;10858;42.714;23.180;2023-05-07T04:37:22;1.08;;;0.98;;
21394;SDS011;10858;42.714;23.180;2023-05-07T04:39:50;1.40;;;1.30;;
21394;SDS011;10858;42.714;23.180;2023-05-07T04:42:16;2.28;;;1.95;;
21394;SDS011;10858;42.714;23.180;2023-05-07T04:44:44;1.85;;;1.52;;
21394;SDS011;10858;42.714;23.180;2023-05-07T04:47:10;1.05;;;0.93;;
21394;SDS011;10858;42.714;23.180;2023-05-07T04:49:37;2.20;;;1.58;;
21394;SDS011;10858;42.714;23.180;2023-05-07T04:52:04;1.55;;;1.45;;
21394;SDS011;10858;42.714;23.180;2023-05-07T04:54:30;1.17;;;1.15;;
21394;SDS011;10858;42.714;23.180;2023-05-07T04:56:56;2.40;;;1.55;;
21394;SDS011;10858;42.714;23.180;2023-05-07T04:59:23;2.83;;;0.98;;
21394;SDS011;10858;42.714;23.180;2023-05-07T05:01:49;1.63;;;1.17;;
21394;SDS011;10858;42.714;23.180;2023-05-07T05:04:15;1.15;;;1.05;;
21394;SDS011;10858;42.714;23.180;2023-05-07T05:06:41;2.35;;;1.52;;
21394;SDS011;10858;42.714;23.180;2023-05-07T05:09:07;6.68;;;1.92;;
21394;SDS011;10858;42.714;23.180;2023-05-07T05:11:34;1.10;;;0.88;;
21394;SDS011;10858;42.714;23.180;2023-05-07T05:14:00;1.60;;;1.42;;
21394;SDS011;10858;42.714;23.180;2023-05-07T05:16:27;2.20;;;1.63;;
21394;SDS011;10858;42.714;23.180;2023-05-07T05:18:53;2.13;;;1.92;;
21394;SDS011;10858;42.714;23.180;2023-05-07T05:21:20;0.82;;;0.70;;
21394;SDS011;10858;42.714;23.180;2023-05-07T05:23:46;1.25;;;1.13;;
21394;SDS011;10858;42.714;23.180;2023-05-07T05:26:12;2.17;;;1.13;;
21394;SDS011;10858;42.714;23.180;2023-05-07T05:28:38;1.55;;;1.38;;
21394;SDS011;10858;42.714;23.180;2023-05-07T05:31:05;2.83;;;1.20;;
21394;SDS011;10858;42.714;23.180;2023-05-07T05:33:31;2.70;;;1.63;;
21394;SDS011;10858;42.714;23.180;2023-05-07T05:35:57;1.38;;;1.27;;
21394;SDS011;10858;42.714;23.180;2023-05-07T05:38:24;1.48;;;1.38;;
21394;SDS011;10858;42.714;23.180;2023-05-07T05:40:50;1.92;;;1.15;;
21394;SDS011;10858;42.714;23.180;2023-05-07T05:43:16;0.88;;;0.82;;
21394;SDS011;10858;42.714;23.180;2023-05-07T05:45:43;0.70;;;0.70;;
21394;SDS011;10858;42.714;23.180;2023-05-07T05:48:09;0.82;;;0.80;;
21394;SDS011;10858;42.714;23.180;2023-05-07T05:50:35;1.85;;;1.42;;
21394;SDS011;10858;42.714;23.180;2023-05-07T05:53:02;1.88;;;1.13;;
21394;SDS011;10858;42.714;23.180;2023-05-07T05:55:28;1.00;;;0.98;;
21394;SDS011;10858;42.714;23.180;2023-05-07T05:57:55;1.45;;;0.82;;
21394;SDS011;10858;42.714;23.180;2023-05-07T06:00:21;1.67;;;1.58;;
21394;SDS011;10858;42.714;23.180;2023-05-07T06:02:48;1.02;;;0.93;;
21394;SDS011;10858;42.714;23.180;2023-05-07T06:05:15;1.35;;;0.63;;
21394;SDS011;10858;42.714;23.180;2023-05-07T06:07:41;1.70;;;1.25;;
21394;SDS011;10858;42.714;23.180;2023-05-07T06:10:08;1.88;;;1.67;;
21394;SDS011;10858;42.714;23.180;2023-05-07T06:12:34;1.10;;;1.05;;
21394;SDS011;10858;42.714;23.180;2023-05-07T06:15:00;1.58;;;1.02;;
21394;SDS011;10858;42.714;23.180;2023-05-07T06:17:27;0.75;;;0.75;;
21394;SDS011;10858;42.714;23.180;2023-05-07T06:19:53;0.93;;;0.93;;
21394;SDS011;10858;42.714;23.180;2023-05-07T06:22:19;1.38;;;1.27;;
21394;SDS011;10858;42.714;23.180;2023-05-07T06:24:45;1.15;;;1.00;;
21394;SDS011;10858;42.714;23.180;2023-05-07T06:27:11;0.43;;;0.43;;
21394;SDS011;10858;42.714;23.180;2023-05-07T06:29:38;1.27;;;1.13;;
21394;SDS011;10858;42.714;23.180;2023-05-07T06:32:11;3.13;;;1.75;;
21394;SDS011;10858;42.714;23.180;2023-05-07T06:34:38;1.17;;;0.88;;
21394;SDS011;10858;42.714;23.180;2023-05-07T06:37:05;1.23;;;1.13;;
21394;SDS011;10858;42.714;23.180;2023-05-07T06:39:32;1.35;;;1.15;;
21394;SDS011;10858;42.714;23.180;2023-05-07T06:41:59;0.93;;;0.93;;
21394;SDS011;10858;42.714;23.180;2023-05-07T06:44:26;2.60;;;1.08;;
21394;SDS011;10858;42.714;23.180;2023-05-07T06:46:53;4.32;;;1.88;;
21394;SDS011;10858;42.714;23.180;2023-05-07T06:49:19;0.88;;;0.68;;
21394;SDS011;10858;42.714;23.180;2023-05-07T06:51:45;2.67;;;0.93;;
21394;SDS011;10858;42.714;23.180;2023-05-07T06:54:11;0.57;;;0.57;;
21394;SDS011;10858;42.714;23.180;2023-05-07T06:56:38;1.65;;;1.13;;
21394;SDS011;10858;42.714;23.180;2023-05-07T06:59:04;1.25;;;1.05;;
21394;SDS011;10858;42.714;23.180;2023-05-07T07:01:31;1.42;;;0.80;;
21394;SDS011;10858;42.714;23.180;2023-05-07T07:03:57;0.60;;;0.60;;
21394;SDS011;10858;42.714;23.180;2023-05-07T07:06:23;1.25;;;1.15;;
21394;SDS011;10858;42.714;23.180;2023-05-07T07:08:50;1.73;;;1.25;;
21394;SDS011;10858;42.714;23.180;2023-05-07T07:11:16;1.38;;;0.63;;
21394;SDS011;10858;42.714;23.180;2023-05-07T07:13:43;0.70;;;0.70;;
21394;SDS011;10858;42.714;23.180;2023-05-07T07:16:09;0.90;;;0.80;;
21394;SDS011;10858;42.714;23.180;2023-05-07T07:18:35;1.33;;;0.95;;
21394;SDS011;10858;42.714;23.180;2023-05-07T07:21:02;0.80;;;0.80;;
21394;SDS011;10858;42.714;23.180;2023-05-07T07:23:28;1.85;;;1.52;;
21394;SDS011;10858;42.714;23.180;2023-05-07T07:25:54;1.17;;;0.88;;
21394;SDS011;10858;42.714;23.180;2023-05-07T07:28:21;3.85;;;1.27;;
21394;SDS011;10858;42.714;23.180;2023-05-07T07:30:47;0.75;;;0.45;;
21394;SDS011;10858;42.714;23.180;2023-05-07T07:33:13;1.98;;;1.80;;
21394;SDS011;10858;42.714;23.180;2023-05-07T07:35:39;1.02;;;1.02;;
21394;SDS011;10858;42.714;23.180;2023-05-07T07:38:06;1.05;;;0.90;;
21394;SDS011;10858;42.714;23.180;2023-05-07T07:40:34;1.60;;;1.48;;
21394;SDS011;10858;42.714;23.180;2023-05-07T07:43:00;1.20;;;1.00;;
21394;SDS011;10858;42.714;23.180;2023-05-07T07:45:27;1.65;;;1.40;;
21394;SDS011;10858;42.714;23.180;2023-05-07T07:47:53;2.92;;;1.40;;
21394;SDS011;10858;42.714;23.180;2023-05-07T07:50:19;1.73;;;1.33;;
21394;SDS011;10858;42.714;23.180;2023-05-07T07:52:45;0.82;;;0.77;;
21394;SDS011;10858;42.714;23.180;2023-05-07T07:55:12;1.35;;;1.10;;
21394;SDS011;10858;42.714;23.180;2023-05-07T07:57:42;1.27;;;1.13;;
21394;SDS011;10858;42.714;23.180;2023-05-07T08:00:09;0.90;;;0.90;;
21394;SDS011;10858;42.714;23.180;2023-05-07T08:02:35;1.30;;;0.80;;
21394;SDS011;10858;42.714;23.180;2023-05-07T08:05:02;1.40;;;1.30;;
21394;SDS011;10858;42.714;23.180;2023-05-07T08:07:28;0.82;;;0.73;;
21394;SDS011;10858;42.714;23.180;2023-05-07T08:09:55;0.60;;;0.60;;
21394;SDS011;10858;42.714;23.180;2023-05-07T08:12:21;1.05;;;0.95;;
21394;SDS011;10858;42.714;23.180;2023-05-07T08:14:47;1.00;;;0.95;;
21394;SDS011;10858;42.714;23.180;2023-05-07T08:17:14;1.48;;;0.85;;
21394;SDS011;10858;42.714;23.180;2023-05-07T08:19:41;0.68;;;0.68;;
21394;SDS011;10858;42.714;23.180;2023-05-07T08:22:08;1.27;;;0.63;;
21394;SDS011;10858;42.714;23.180;2023-05-07T08:24:35;0.73;;;0.50;;
21394;SDS011;10858;42.714;23.180;2023-05-07T08:27:02;0.40;;;0.40;;
21394;SDS011;10858;42.714;23.180;2023-05-07T08:29:28;0.88;;;0.77;;
21394;SDS011;10858;42.714;23.180;2023-05-07T08:31:54;0.55;;;0.55;;
21394;SDS011;10858;42.714;23.180;2023-05-07T08:34:21;3.28;;;1.02;;
21394;SDS011;10858;42.714;23.180;2023-05-07T08:36:48;0.60;;;0.60;;
21394;SDS011;10858;42.714;23.180;2023-05-07T08:39:17;0.90;;;0.70;;
21394;SDS011;10858;42.714;23.180;2023-05-07T08:41:47;1.35;;;0.68;;
21394;SDS011;10858;42.714;23.180;2023-05-07T08:44:15;1.23;;;0.93;;
21394;SDS011;10858;42.714;23.180;2023-05-07T08:46:46;1.02;;;0.85;;
21394;SDS011;10858;42.714;23.180;2023-05-07T08:49:14;1.55;;;1.20;;
21394;SDS011;10858;42.714;23.180;2023-05-07T08:51:41;1.02;;;0.95;;
21394;SDS011;10858;42.714;23.180;2023-05-07T08:54:08;1.65;;;1.38;;
21394;SDS011;10858;42.714;23.180;2023-05-07T08:56:35;1.65;;;1.08;;
21394;SDS011;10858;42.714;23.180;2023-05-07T08:59:02;1.55;;;0.80;;
21394;SDS011;10858;42.714;23.180;2023-05-07T09:01:28;2.33;;;1.45;;
21394;SDS011;10858;42.714;23.180;2023-05-07T09:03:55;4.57;;;1.55;;
21394;SDS011;10858;42.714;23.180;2023-05-07T09:06:22;0.88;;;0.88;;
21394;SDS011;10858;42.714;23.180;2023-05-07T09:08:49;0.63;;;0.38;;
21394;SDS011;10858;42.714;23.180;2023-05-07T09:11:19;1.10;;;1.00;;
21394;SDS011;10858;42.714;23.180;2023-05-07T09:13:48;1.52;;;0.73;;
21394;SDS011;10858;42.714;23.180;2023-05-07T09:16:23;1.33;;;1.10;;
21394;SDS011;10858;42.714;23.180;2023-05-07T09:18:53;1.90;;;0.90;;
21394;SDS011;10858;42.714;23.180;2023-05-07T09:21:20;0.93;;;0.55;;
21394;SDS011;10858;42.714;23.180;2023-05-07T09:23:48;1.27;;;0.80;;
21394;SDS011;10858;42.714;23.180;2023-05-07T09:26:18;1.02;;;0.93;;
21394;SDS011;10858;42.714;23.180;2023-05-07T09:28:46;0.80;;;0.77;;
21394;SDS011;10858;42.714;23.180;2023-05-07T09:31:12;2.35;;;1.20;;
21394;SDS011;10858;42.714;23.180;2023-05-07T09:33:39;1.05;;;0.77;;
21394;SDS011;10858;42.714;23.180;2023-05-07T09:36:06;0.82;;;0.82;;
21394;SDS011;10858;42.714;23.180;2023-05-07T09:38:34;0.95;;;0.95;;
21394;SDS011;10858;42.714;23.180;2023-05-07T09:41:09;0.65;;;0.52;;
21394;SDS011;10858;42.714;23.180;2023-05-07T09:43:37;0.82;;;0.60;;
21394;SDS011;10858;42.714;23.180;2023-05-07T09:48:37;1.05;;;0.77;;
21394;SDS011;10858;42.714;23.180;2023-05-07T09:51:28;0.68;;;0.63;;
21394;SDS011;10858;42.714;23.180;2023-05-07T09:53:56;0.60;;;0.60;;
21394;SDS011;10858;42.714;23.180;2023-05-07T09:56:25;0.30;;;0.30;;
21394;SDS011;10858;42.714;23.180;2023-05-07T09:58:52;0.30;;;0.30;;
21394;SDS011;10858;42.714;23.180;2023-05-07T10:01:21;2.92;;;1.08;;
21394;SDS011;10858;42.714;23.180;2023-05-07T10:03:49;0.95;;;0.55;;
21394;SDS011;10858;42.714;23.180;2023-05-07T10:06:16;0.68;;;0.68;;
21394;SDS011;10858;42.714;23.180;2023-05-07T10:08:42;0.82;;;0.82;;
21394;SDS011;10858;42.714;23.180;2023-05-07T10:11:09;0.65;;;0.55;;
21394;SDS011;10858;42.714;23.180;2023-05-07T10:13:36;0.25;;;0.25;;
21394;SDS011;10858;42.714;23.180;2023-05-07T10:16:03;0.68;;;0.65;;
21394;SDS011;10858;42.714;23.180;2023-05-07T10:18:32;0.40;;;0.40;;
21394;SDS011;10858;42.714;23.180;2023-05-07T10:21:11;1.40;;;1.02;;
21394;SDS011;10858;42.714;23.180;2023-05-07T10:23:58;1.25;;;0.60;;
21394;SDS011;10858;42.714;23.180;2023-05-07T10:26:31;0.50;;;0.50;;
21394;SDS011;10858;42.714;23.180;2023-05-07T10:29:03;1.38;;;0.90;;
21394;SDS011;10858;42.714;23.180;2023-05-07T10:31:55;0.20;;;0.20;;
21394;SDS011;10858;42.714;23.180;2023-05-07T10:34:29;0.70;;;0.50;;
21394;SDS011;10858;42.714;23.180;2023-05-07T10:37:01;1.08;;;0.75;;
21394;SDS011;10858;42.714;23.180;2023-05-07T10:39:29;1.13;;;0.60;;
21394;SDS011;10858;42.714;23.180;2023-05-07T10:41:55;0.25;;;0.25;;
21394;SDS011;10858;42.714;23.180;2023-05-07T10:44:31;1.63;;;0.82;;
21394;SDS011;10858;42.714;23.180;2023-05-07T10:47:11;0.35;;;0.35;;
21394;SDS011;10858;42.714;23.180;2023-05-07T10:52:11;0.28;;;0.28;;
21394;SDS011;10858;42.714;23.180;2023-05-07T10:54:43;1.65;;;0.52;;
21394;SDS011;10858;42.714;23.180;2023-05-07T11:00:02;0.30;;;0.30;;
21394;SDS011;10858;42.714;23.180;2023-05-07T11:03:29;1.00;;;0.77;;
21394;SDS011;10858;42.714;23.180;2023-05-07T11:05:24;2.08;;;1.08;;
21394;SDS011;10858;42.714;23.180;2023-05-07T11:07:58;1.40;;;0.22;;
21394;SDS011;10858;42.714;23.180;2023-05-07T11:13:17;0.25;;;0.25;;
21394;SDS011;10858;42.714;23.180;2023-05-07T11:16:04;0.20;;;0.20;;
21394;SDS011;10858;42.714;23.180;2023-05-07T11:18:46;0.40;;;0.40;;
21394;SDS011;10858;42.714;23.180;2023-05-07T11:21:35;0.30;;;0.30;;
21394;SDS011;10858;42.714;23.180;2023-05-07T11:24:02;0.88;;;0.52;;
21394;SDS011;10858;42.714;23.180;2023-05-07T11:26:30;0.60;;;0.60;;
21394;SDS011;10858;42.714;23.180;2023-05-07T11:29:12;0.52;;;0.30;;
21394;SDS011;10858;42.714;23.180;2023-05-07T11:31:43;0.43;;;0.30;;
21394;SDS011;10858;42.714;23.180;2023-05-07T11:34:13;0.55;;;0.55;;
21394;SDS011;10858;42.714;23.180;2023-05-07T11:36:43;0.47;;;0.47;;
21394;SDS011;10858;42.714;23.180;2023-05-07T11:39:26;0.40;;;0.40;;
21394;SDS011;10858;42.714;23.180;2023-05-07T11:41:54;3.20;;;1.00;;
21394;SDS011;10858;42.714;23.180;2023-05-07T11:44:20;2.40;;;0.70;;
21394;SDS011;10858;42.714;23.180;2023-05-07T11:46:46;0.52;;;0.52;;
21394;SDS011;10858;42.714;23.180;2023-05-07T11:49:13;0.88;;;0.60;;
21394;SDS011;10858;42.714;23.180;2023-05-07T11:51:40;2.15;;;0.93;;
21394;SDS011;10858;42.714;23.180;2023-05-07T11:54:07;0.60;;;0.38;;
21394;SDS011;10858;42.714;23.180;2023-05-07T11:56:36;0.25;;;0.25;;
21394;SDS011;10858;42.714;23.180;2023-05-07T11:59:03;0.63;;;0.63;;
21394;SDS011;10858;42.714;23.180;2023-05-07T12:01:29;0.30;;;0.30;;
21394;SDS011;10858;42.714;23.180;2023-05-07T12:03:55;0.55;;;0.55;;
21394;SDS011;10858;42.714;23.180;2023-05-07T12:06:21;0.40;;;0.40;;
21394;SDS011;10858;42.714;23.180;2023-05-07T12:08:48;0.95;;;0.70;;
21394;SDS011;10858;42.714;23.180;2023-05-07T12:11:24;0.80;;;0.80;;
21394;SDS011;10858;42.714;23.180;2023-05-07T12:13:50;0.68;;;0.68;;
21394;SDS011;10858;42.714;23.180;2023-05-07T12:16:18;0.50;;;0.50;;
21394;SDS011;10858;42.714;23.180;2023-05-07T12:18:45;0.57;;;0.57;;
21394;SDS011;10858;42.714;23.180;2023-05-07T12:21:12;0.28;;;0.28;;
21394;SDS011;10858;42.714;23.180;2023-05-07T12:23:39;0.40;;;0.40;;
21394;SDS011;10858;42.714;23.180;2023-05-07T12:26:05;0.77;;;0.52;;
21394;SDS011;10858;42.714;23.180;2023-05-07T12:28:36;1.33;;;0.57;;
21394;SDS011;10858;42.714;23.180;2023-05-07T12:31:03;0.85;;;0.80;;
21394;SDS011;10858;42.714;23.180;2023-05-07T12:33:30;0.65;;;0.65;;
21394;SDS011;10858;42.714;23.180;2023-05-07T12:35:58;1.02;;;0.60;;
21394;SDS011;10858;42.714;23.180;2023-05-07T12:38:27;0.98;;;0.90;;
21394;SDS011;10858;42.714;23.180;2023-05-07T12:41:06;0.50;;;0.32;;
21394;SDS011;10858;42.714;23.180;2023-05-07T12:43:34;0.77;;;0.70;;
21394;SDS011;10858;42.714;23.180;2023-05-07T12:46:01;0.40;;;0.35;;
21394;SDS011;10858;42.714;23.180;2023-05-07T12:48:31;1.30;;;1.17;;
21394;SDS011;10858;42.714;23.180;2023-05-07T12:50:59;0.38;;;0.38;;
21394;SDS011;10858;42.714;23.180;2023-05-07T12:53:27;0.45;;;0.45;;
21394;SDS011;10858;42.714;23.180;2023-05-07T12:55:56;0.30;;;0.30;;
21394;SDS011;10858;42.714;23.180;2023-05-07T13:00:52;0.85;;;0.73;;
21394;SDS011;10858;42.714;23.180;2023-05-07T13:03:26;0.32;;;0.32;;
21394;SDS011;10858;42.714;23.180;2023-05-07T13:05:54;0.20;;;0.20;;
21394;SDS011;10858;42.714;23.180;2023-05-07T13:08:24;0.43;;;0.40;;
21394;SDS011;10858;42.714;23.180;2023-05-07T13:10:51;0.63;;;0.63;;
21394;SDS011;10858;42.714;23.180;2023-05-07T13:13:18;0.20;;;0.20;;
21394;SDS011;10858;42.714;23.180;2023-05-07T13:15:45;0.45;;;0.40;;
21394;SDS011;10858;42.714;23.180;2023-05-07T13:18:12;1.88;;;0.85;;
21394;SDS011;10858;42.714;23.180;2023-05-07T13:20:38;0.40;;;0.40;;
21394;SDS011;10858;42.714;23.180;2023-05-07T13:23:05;0.05;;;0.05;;
21394;SDS011;10858;42.714;23.180;2023-05-07T13:25:31;0.22;;;0.15;;
21394;SDS011;10858;42.714;23.180;2023-05-07T13:27:58;0.52;;;0.40;;
21394;SDS011;10858;42.714;23.180;2023-05-07T13:30:24;0.28;;;0.10;;
21394;SDS011;10858;42.714;23.180;2023-05-07T13:32:51;0.80;;;0.63;;
21394;SDS011;10858;42.714;23.180;2023-05-07T13:35:20;0.00;;;0.00;;
21394;SDS011;10858;42.714;23.180;2023-05-07T13:37:46;3.53;;;0.73;;
21394;SDS011;10858;42.714;23.180;2023-05-07T13:40:17;0.32;;;0.30;;
21394;SDS011;10858;42.714;23.180;2023-05-07T13:42:44;0.20;;;0.20;;
21394;SDS011;10858;42.714;23.180;2023-05-07T13:45:10;0.98;;;0.73;;
21394;SDS011;10858;42.714;23.180;2023-05-07T13:47:39;0.38;;;0.35;;
21394;SDS011;10858;42.714;23.180;2023-05-07T13:50:06;0.70;;;0.47;;
21394;SDS011;10858;42.714;23.180;2023-05-07T13:52:33;0.50;;;0.32;;
21394;SDS011;10858;42.714;23.180;2023-05-07T13:55:00;0.25;;;0.25;;
21394;SDS011;10858;42.714;23.180;2023-05-07T13:57:26;0.75;;;0.45;;
21394;SDS011;10858;42.714;23.180;2023-05-07T13:59:52;0.20;;;0.20;;
21394;SDS011;10858;42.714;23.180;2023-05-07T14:02:18;0.43;;;0.43;;
21394;SDS011;10858;42.714;23.180;2023-05-07T14:04:44;0.57;;;0.57;;
21394;SDS011;10858;42.714;23.180;2023-05-07T14:07:11;0.40;;;0.40;;
21394;SDS011;10858;42.714;23.180;2023-05-07T14:09:37;0.28;;;0.28;;
21394;SDS011;10858;42.714;23.180;2023-05-07T14:12:03;0.95;;;0.90;;
21394;SDS011;10858;42.714;23.180;2023-05-07T14:14:30;0.40;;;0.40;;
21394;SDS011;10858;42.714;23.180;2023-05-07T14:16:56;0.40;;;0.40;;
21394;SDS011;10858;42.714;23.180;2023-05-07T14:19:22;0.60;;;0.60;;
21394;SDS011;10858;42.714;23.180;2023-05-07T14:21:49;0.90;;;0.73;;
21394;SDS011;10858;42.714;23.180;2023-05-07T14:24:15;0.68;;;0.68;;
21394;SDS011;10858;42.714;23.180;2023-05-07T14:26:41;0.40;;;0.40;;
21394;SDS011;10858;42.714;23.180;2023-05-07T14:29:08;0.50;;;0.40;;
21394;SDS011;10858;42.714;23.180;2023-05-07T14:31:34;0.95;;;0.30;;
21394;SDS011;10858;42.714;23.180;2023-05-07T14:34:00;0.30;;;0.30;;
21394;SDS011;10858;42.714;23.180;2023-05-07T14:36:27;0.57;;;0.50;;
21394;SDS011;10858;42.714;23.180;2023-05-07T14:38:55;0.55;;;0.55;;
21394;SDS011;10858;42.714;23.180;2023-05-07T14:41:24;0.43;;;0.35;;
21394;SDS011;10858;42.714;23.180;2023-05-07T14:43:50;0.28;;;0.28;;
21394;SDS011;10858;42.714;23.180;2023-05-07T14:46:17;0.60;;;0.50;;
21394;SDS011;10858;42.714;23.180;2023-05-07T14:48:46;0.68;;;0.45;;